sensor_id;sensor_type;location;lat;lon;timestamp;P1;durP1;ratioP1;P2;durP2;ratioP2
78382;SDS011;67668;52.294;4.692;2023-03-12T00:01:26;6.35;;;2.40;;
78382;SDS011;67668;52.294;4.692;2023-03-12T00:03:54;4.25;;;2.20;;
78382;SDS011;67668;52.294;4.692;2023-03-12T00:06:20;6.45;;;2.33;;
78382;SDS011;67668;52.294;4.692;2023-03-12T00:08:46;6.15;;;2.55;;
78382;SDS011;67668;52.294;4.692;2023-03-12T00:11:13;5.40;;;2.40;;
78382;SDS011;67668;52.294;4.692;2023-03-12T00:13:42;4.63;;;2.50;;
78382;SDS011;67668;52.294;4.692;2023-03-12T00:16:09;3.03;;;1.80;;
78382;SDS011;67668;52.294;4.692;2023-03-12T00:18:36;3.55;;;1.95;;
78382;SDS011;67668;52.294;4.692;2023-03-12T00:21:02;7.80;;;2.50;;
78382;SDS011;67668;52.294;4.692;2023-03-12T00:23:27;5.88;;;3.33;;
78382;SDS011;67668;52.294;4.692;2023-03-12T00:25:53;4.20;;;2.58;;
78382;SDS011;67668;52.294;4.692;2023-03-12T00:28:18;7.03;;;2.95;;
78382;SDS011;67668;52.294;4.692;2023-03-12T00:30:44;5.90;;;3.30;;
78382;SDS011;67668;52.294;4.692;2023-03-12T00:33:10;6.47;;;3.00;;
78382;SDS011;67668;52.294;4.692;2023-03-12T00:35:37;7.57;;;3.35;;
78382;SDS011;67668;52.294;4.692;2023-03-12T00:38:03;7.22;;;3.17;;
78382;SDS011;67668;52.294;4.692;2023-03-12T00:40:29;5.05;;;2.90;;
78382;SDS011;67668;52.294;4.692;2023-03-12T00:42:54;6.00;;;3.40;;
78382;SDS011;67668;52.294;4.692;2023-03-12T00:45:19;5.30;;;3.50;;
78382;SDS011;67668;52.294;4.692;2023-03-12T00:47:45;6.30;;;3.22;;
78382;SDS011;67668;52.294;4.692;2023-03-12T00:50:10;6.72;;;2.83;;
78382;SDS011;67668;52.294;4.692;2023-03-12T00:52:36;7.67;;;3.47;;
78382;SDS011;67668;52.294;4.692;2023-03-12T00:55:01;6.35;;;2.90;;
78382;SDS011;67668;52.294;4.692;2023-03-12T00:57:26;6.07;;;2.78;;
78382;SDS011;67668;52.294;4.692;2023-03-12T00:59:52;4.40;;;3.00;;
78382;SDS011;67668;52.294;4.692;2023-03-12T01:02:32;5.67;;;3.10;;
78382;SDS011;67668;52.294;4.692;2023-03-12T01:04:58;8.95;;;2.90;;
78382;SDS011;67668;52.294;4.692;2023-03-12T01:07:23;7.30;;;3.58;;
78382;SDS011;67668;52.294;4.692;2023-03-12T01:09:48;8.27;;;3.13;;
78382;SDS011;67668;52.294;4.692;2023-03-12T01:12:14;6.38;;;2.80;;
78382;SDS011;67668;52.294;4.692;2023-03-12T01:14:39;4.95;;;2.55;;
78382;SDS011;67668;52.294;4.692;2023-03-12T01:17:05;5.85;;;3.22;;
78382;SDS011;67668;52.294;4.692;2023-03-12T01:19:30;7.95;;;3.17;;
78382;SDS011;67668;52.294;4.692;2023-03-12T01:21:56;4.75;;;3.03;;
78382;SDS011;67668;52.294;4.692;2023-03-12T01:24:21;7.68;;;3.42;;
78382;SDS011;67668;52.294;4.692;2023-03-12T01:26:46;6.78;;;3.72;;
78382;SDS011;67668;52.294;4.692;2023-03-12T01:29:12;10.40;;;2.95;;
78382;SDS011;67668;52.294;4.692;2023-03-12T01:31:37;6.00;;;2.75;;
78382;SDS011;67668;52.294;4.692;2023-03-12T01:34:03;8.63;;;3.30;;
78382;SDS011;67668;52.294;4.692;2023-03-12T01:36:28;4.68;;;2.90;;
78382;SDS011;67668;52.294;4.692;2023-03-12T01:38:55;4.90;;;2.97;;
78382;SDS011;67668;52.294;4.692;2023-03-12T01:41:23;5.95;;;2.88;;
78382;SDS011;67668;52.294;4.692;2023-03-12T01:43:50;10.00;;;3.65;;
78382;SDS011;67668;52.294;4.692;2023-03-12T01:49:05;6.57;;;3.25;;
78382;SDS011;67668;52.294;4.692;2023-03-12T01:55:11;11.77;;;3.30;;
78382;SDS011;67668;52.294;4.692;2023-03-12T02:00:13;8.98;;;3.20;;
78382;SDS011;67668;52.294;4.692;2023-03-12T02:02:41;4.07;;;2.60;;
78382;SDS011;67668;52.294;4.692;2023-03-12T02:05:10;5.63;;;2.83;;
78382;SDS011;67668;52.294;4.692;2023-03-12T02:07:43;7.05;;;3.35;;
78382;SDS011;67668;52.294;4.692;2023-03-12T02:10:08;9.67;;;3.07;;
78382;SDS011;67668;52.294;4.692;2023-03-12T02:12:34;6.10;;;2.85;;
78382;SDS011;67668;52.294;4.692;2023-03-12T02:14:59;4.83;;;2.40;;
78382;SDS011;67668;52.294;4.692;2023-03-12T02:17:25;10.45;;;3.22;;
78382;SDS011;67668;52.294;4.692;2023-03-12T02:22:41;6.43;;;3.08;;
78382;SDS011;67668;52.294;4.692;2023-03-12T02:27:43;4.85;;;2.75;;
78382;SDS011;67668;52.294;4.692;2023-03-12T02:30:09;5.20;;;3.90;;
78382;SDS011;67668;52.294;4.692;2023-03-12T02:32:39;8.10;;;3.03;;
78382;SDS011;67668;52.294;4.692;2023-03-12T02:35:05;6.82;;;3.10;;
78382;SDS011;67668;52.294;4.692;2023-03-12T02:37:31;7.88;;;3.10;;
78382;SDS011;67668;52.294;4.692;2023-03-12T02:39:59;8.07;;;3.22;;
78382;SDS011;67668;52.294;4.692;2023-03-12T02:42:29;6.10;;;2.88;;
78382;SDS011;67668;52.294;4.692;2023-03-12T02:44:55;5.55;;;3.35;;
78382;SDS011;67668;52.294;4.692;2023-03-12T02:49:47;6.13;;;2.93;;
78382;SDS011;67668;52.294;4.692;2023-03-12T02:52:12;7.53;;;3.40;;
78382;SDS011;67668;52.294;4.692;2023-03-12T02:54:38;5.80;;;2.90;;
78382;SDS011;67668;52.294;4.692;2023-03-12T02:57:03;7.85;;;3.40;;
78382;SDS011;67668;52.294;4.692;2023-03-12T02:59:29;7.00;;;3.05;;
78382;SDS011;67668;52.294;4.692;2023-03-12T03:01:55;5.20;;;2.70;;
78382;SDS011;67668;52.294;4.692;2023-03-12T03:04:22;7.55;;;3.83;;
78382;SDS011;67668;52.294;4.692;2023-03-12T03:06:48;4.65;;;2.80;;
78382;SDS011;67668;52.294;4.692;2023-03-12T03:09:14;12.50;;;3.22;;
78382;SDS011;67668;52.294;4.692;2023-03-12T03:11:39;4.73;;;2.97;;
78382;SDS011;67668;52.294;4.692;2023-03-12T03:14:05;4.43;;;2.72;;
78382;SDS011;67668;52.294;4.692;2023-03-12T03:16:31;8.93;;;2.80;;
78382;SDS011;67668;52.294;4.692;2023-03-12T03:18:57;6.03;;;2.85;;
78382;SDS011;67668;52.294;4.692;2023-03-12T03:21:23;3.60;;;2.15;;
78382;SDS011;67668;52.294;4.692;2023-03-12T03:23:49;3.03;;;2.13;;
78382;SDS011;67668;52.294;4.692;2023-03-12T03:26:16;5.25;;;3.58;;
78382;SDS011;67668;52.294;4.692;2023-03-12T03:28:43;4.68;;;2.65;;
78382;SDS011;67668;52.294;4.692;2023-03-12T03:31:09;5.77;;;2.50;;
78382;SDS011;67668;52.294;4.692;2023-03-12T03:33:35;6.53;;;2.72;;
78382;SDS011;67668;52.294;4.692;2023-03-12T03:36:03;6.80;;;2.70;;
78382;SDS011;67668;52.294;4.692;2023-03-12T03:38:29;4.55;;;2.70;;
78382;SDS011;67668;52.294;4.692;2023-03-12T03:40:56;3.45;;;2.25;;
78382;SDS011;67668;52.294;4.692;2023-03-12T03:43:22;6.05;;;2.25;;
78382;SDS011;67668;52.294;4.692;2023-03-12T03:45:47;6.85;;;2.40;;
78382;SDS011;67668;52.294;4.692;2023-03-12T03:48:13;7.93;;;2.60;;
78382;SDS011;67668;52.294;4.692;2023-03-12T03:50:40;7.68;;;2.58;;
78382;SDS011;67668;52.294;4.692;2023-03-12T03:53:06;8.00;;;2.65;;
78382;SDS011;67668;52.294;4.692;2023-03-12T03:55:37;7.13;;;2.90;;
78382;SDS011;67668;52.294;4.692;2023-03-12T03:58:03;6.93;;;3.72;;
78382;SDS011;67668;52.294;4.692;2023-03-12T04:00:29;9.30;;;2.88;;
78382;SDS011;67668;52.294;4.692;2023-03-12T04:02:55;6.00;;;2.97;;
78382;SDS011;67668;52.294;4.692;2023-03-12T04:05:20;6.45;;;2.67;;
78382;SDS011;67668;52.294;4.692;2023-03-12T04:07:46;8.32;;;2.13;;
78382;SDS011;67668;52.294;4.692;2023-03-12T04:10:12;5.15;;;2.20;;
78382;SDS011;67668;52.294;4.692;2023-03-12T04:12:38;3.05;;;2.30;;
78382;SDS011;67668;52.294;4.692;2023-03-12T04:15:03;3.45;;;2.17;;
78382;SDS011;67668;52.294;4.692;2023-03-12T04:17:29;6.70;;;2.22;;
78382;SDS011;67668;52.294;4.692;2023-03-12T04:19:55;7.83;;;2.07;;
78382;SDS011;67668;52.294;4.692;2023-03-12T04:22:20;4.23;;;1.90;;
78382;SDS011;67668;52.294;4.692;2023-03-12T04:24:46;9.03;;;1.93;;
78382;SDS011;67668;52.294;4.692;2023-03-12T04:27:12;6.55;;;1.90;;
78382;SDS011;67668;52.294;4.692;2023-03-12T04:29:37;3.55;;;2.22;;
78382;SDS011;67668;52.294;4.692;2023-03-12T04:32:05;6.47;;;2.85;;
78382;SDS011;67668;52.294;4.692;2023-03-12T04:34:30;4.95;;;2.30;;
78382;SDS011;67668;52.294;4.692;2023-03-12T04:36:57;5.35;;;2.25;;
78382;SDS011;67668;52.294;4.692;2023-03-12T04:39:22;3.95;;;1.80;;
78382;SDS011;67668;52.294;4.692;2023-03-12T04:41:47;4.25;;;2.35;;
78382;SDS011;67668;52.294;4.692;2023-03-12T04:44:13;7.70;;;2.55;;
78382;SDS011;67668;52.294;4.692;2023-03-12T04:46:39;5.57;;;2.08;;
78382;SDS011;67668;52.294;4.692;2023-03-12T04:49:04;5.75;;;2.50;;
78382;SDS011;67668;52.294;4.692;2023-03-12T04:51:30;3.80;;;1.87;;
78382;SDS011;67668;52.294;4.692;2023-03-12T04:53:56;6.05;;;2.65;;
78382;SDS011;67668;52.294;4.692;2023-03-12T04:56:21;5.80;;;2.35;;
78382;SDS011;67668;52.294;4.692;2023-03-12T04:58:47;5.97;;;2.38;;
78382;SDS011;67668;52.294;4.692;2023-03-12T05:01:21;7.70;;;2.00;;
78382;SDS011;67668;52.294;4.692;2023-03-12T05:03:49;4.13;;;2.10;;
78382;SDS011;67668;52.294;4.692;2023-03-12T05:06:14;5.78;;;2.40;;
78382;SDS011;67668;52.294;4.692;2023-03-12T05:08:40;9.82;;;2.80;;
78382;SDS011;67668;52.294;4.692;2023-03-12T05:11:05;11.10;;;3.57;;
78382;SDS011;67668;52.294;4.692;2023-03-12T05:13:31;3.88;;;2.20;;
78382;SDS011;67668;52.294;4.692;2023-03-12T05:15:56;8.30;;;3.27;;
78382;SDS011;67668;52.294;4.692;2023-03-12T05:18:22;10.80;;;2.80;;
78382;SDS011;67668;52.294;4.692;2023-03-12T05:20:56;4.47;;;2.63;;
78382;SDS011;67668;52.294;4.692;2023-03-12T05:23:23;4.88;;;2.67;;
78382;SDS011;67668;52.294;4.692;2023-03-12T05:25:48;7.80;;;2.70;;
78382;SDS011;67668;52.294;4.692;2023-03-12T05:28:14;8.97;;;3.07;;
78382;SDS011;67668;52.294;4.692;2023-03-12T05:30:39;7.20;;;2.77;;
78382;SDS011;67668;52.294;4.692;2023-03-12T05:33:05;7.32;;;3.22;;
78382;SDS011;67668;52.294;4.692;2023-03-12T05:35:30;7.47;;;3.27;;
78382;SDS011;67668;52.294;4.692;2023-03-12T05:37:55;5.88;;;3.00;;
78382;SDS011;67668;52.294;4.692;2023-03-12T05:40:21;7.78;;;3.40;;
78382;SDS011;67668;52.294;4.692;2023-03-12T05:42:46;7.28;;;3.10;;
78382;SDS011;67668;52.294;4.692;2023-03-12T05:45:12;7.95;;;3.50;;
78382;SDS011;67668;52.294;4.692;2023-03-12T05:47:37;4.77;;;2.63;;
78382;SDS011;67668;52.294;4.692;2023-03-12T05:50:03;9.02;;;3.38;;
78382;SDS011;67668;52.294;4.692;2023-03-12T05:52:28;9.10;;;3.78;;
78382;SDS011;67668;52.294;4.692;2023-03-12T05:54:54;8.07;;;3.67;;
78382;SDS011;67668;52.294;4.692;2023-03-12T05:57:19;9.65;;;3.83;;
78382;SDS011;67668;52.294;4.692;2023-03-12T05:59:44;13.68;;;3.80;;
78382;SDS011;67668;52.294;4.692;2023-03-12T06:02:11;9.50;;;3.80;;
78382;SDS011;67668;52.294;4.692;2023-03-12T06:04:36;7.63;;;3.72;;
78382;SDS011;67668;52.294;4.692;2023-03-12T06:07:02;9.30;;;4.10;;
78382;SDS011;67668;52.294;4.692;2023-03-12T06:09:27;6.50;;;4.25;;
78382;SDS011;67668;52.294;4.692;2023-03-12T06:11:52;10.40;;;3.87;;
78382;SDS011;67668;52.294;4.692;2023-03-12T06:16:44;11.30;;;3.90;;
78382;SDS011;67668;52.294;4.692;2023-03-12T06:19:10;10.70;;;4.40;;
78382;SDS011;67668;52.294;4.692;2023-03-12T06:21:38;8.75;;;4.20;;
78382;SDS011;67668;52.294;4.692;2023-03-12T06:24:03;9.23;;;4.03;;
78382;SDS011;67668;52.294;4.692;2023-03-12T06:26:29;10.45;;;4.30;;
78382;SDS011;67668;52.294;4.692;2023-03-12T06:28:55;8.45;;;4.63;;
78382;SDS011;67668;52.294;4.692;2023-03-12T06:31:20;8.27;;;4.38;;
78382;SDS011;67668;52.294;4.692;2023-03-12T06:33:47;8.35;;;5.07;;
78382;SDS011;67668;52.294;4.692;2023-03-12T06:36:12;7.78;;;4.78;;
78382;SDS011;67668;52.294;4.692;2023-03-12T06:38:38;9.02;;;4.68;;
78382;SDS011;67668;52.294;4.692;2023-03-12T06:41:06;8.75;;;5.57;;
78382;SDS011;67668;52.294;4.692;2023-03-12T06:43:36;11.07;;;5.13;;
78382;SDS011;67668;52.294;4.692;2023-03-12T06:46:04;8.07;;;4.85;;
78382;SDS011;67668;52.294;4.692;2023-03-12T06:48:31;10.25;;;4.82;;
78382;SDS011;67668;52.294;4.692;2023-03-12T06:51:00;10.98;;;6.25;;
78382;SDS011;67668;52.294;4.692;2023-03-12T06:53:26;8.40;;;4.72;;
78382;SDS011;67668;52.294;4.692;2023-03-12T06:55:52;7.47;;;4.47;;
78382;SDS011;67668;52.294;4.692;2023-03-12T06:58:17;8.52;;;5.65;;
78382;SDS011;67668;52.294;4.692;2023-03-12T07:00:43;8.23;;;4.85;;
78382;SDS011;67668;52.294;4.692;2023-03-12T07:03:08;8.23;;;5.73;;
78382;SDS011;67668;52.294;4.692;2023-03-12T07:05:34;8.63;;;4.82;;
78382;SDS011;67668;52.294;4.692;2023-03-12T07:07:59;7.75;;;4.97;;
78382;SDS011;67668;52.294;4.692;2023-03-12T07:10:24;9.07;;;5.50;;
78382;SDS011;67668;52.294;4.692;2023-03-12T07:12:53;9.27;;;5.22;;
78382;SDS011;67668;52.294;4.692;2023-03-12T07:15:19;7.40;;;5.05;;
78382;SDS011;67668;52.294;4.692;2023-03-12T07:17:44;9.43;;;5.57;;
78382;SDS011;67668;52.294;4.692;2023-03-12T07:20:10;6.88;;;4.93;;
78382;SDS011;67668;52.294;4.692;2023-03-12T07:22:36;11.73;;;5.82;;
78382;SDS011;67668;52.294;4.692;2023-03-12T07:25:01;12.47;;;6.50;;
78382;SDS011;67668;52.294;4.692;2023-03-12T07:27:27;9.02;;;5.90;;
78382;SDS011;67668;52.294;4.692;2023-03-12T07:29:52;10.95;;;6.40;;
78382;SDS011;67668;52.294;4.692;2023-03-12T07:32:18;9.05;;;4.68;;
78382;SDS011;67668;52.294;4.692;2023-03-12T07:34:43;12.63;;;6.07;;
78382;SDS011;67668;52.294;4.692;2023-03-12T07:37:09;10.05;;;6.68;;
78382;SDS011;67668;52.294;4.692;2023-03-12T07:39:34;11.15;;;7.00;;
78382;SDS011;67668;52.294;4.692;2023-03-12T07:42:00;11.00;;;6.73;;
78382;SDS011;67668;52.294;4.692;2023-03-12T07:44:25;10.88;;;7.43;;
78382;SDS011;67668;52.294;4.692;2023-03-12T07:46:51;11.10;;;6.70;;
78382;SDS011;67668;52.294;4.692;2023-03-12T07:49:18;10.48;;;7.05;;
78382;SDS011;67668;52.294;4.692;2023-03-12T07:51:44;11.93;;;7.43;;
78382;SDS011;67668;52.294;4.692;2023-03-12T07:54:09;10.30;;;6.80;;
78382;SDS011;67668;52.294;4.692;2023-03-12T07:56:35;13.20;;;8.10;;
78382;SDS011;67668;52.294;4.692;2023-03-12T07:59:00;12.07;;;8.30;;
78382;SDS011;67668;52.294;4.692;2023-03-12T08:01:26;9.80;;;7.07;;
78382;SDS011;67668;52.294;4.692;2023-03-12T08:03:56;15.57;;;7.88;;
78382;SDS011;67668;52.294;4.692;2023-03-12T08:06:22;11.00;;;6.72;;
78382;SDS011;67668;52.294;4.692;2023-03-12T08:08:48;11.18;;;7.53;;
78382;SDS011;67668;52.294;4.692;2023-03-12T08:11:14;12.45;;;8.40;;
78382;SDS011;67668;52.294;4.692;2023-03-12T08:13:39;12.23;;;7.77;;
78382;SDS011;67668;52.294;4.692;2023-03-12T08:16:04;12.67;;;6.93;;
78382;SDS011;67668;52.294;4.692;2023-03-12T08:18:30;11.68;;;7.50;;
78382;SDS011;67668;52.294;4.692;2023-03-12T08:20:55;10.75;;;7.65;;
78382;SDS011;67668;52.294;4.692;2023-03-12T08:23:21;12.40;;;7.65;;
78382;SDS011;67668;52.294;4.692;2023-03-12T08:25:47;13.48;;;7.93;;
78382;SDS011;67668;52.294;4.692;2023-03-12T08:28:13;12.43;;;8.30;;
78382;SDS011;67668;52.294;4.692;2023-03-12T08:30:50;14.68;;;8.45;;
78382;SDS011;67668;52.294;4.692;2023-03-12T08:33:18;14.10;;;9.43;;
78382;SDS011;67668;52.294;4.692;2023-03-12T08:35:44;14.02;;;8.68;;
78382;SDS011;67668;52.294;4.692;2023-03-12T08:38:09;14.57;;;9.82;;
78382;SDS011;67668;52.294;4.692;2023-03-12T08:40:35;21.50;;;10.07;;
78382;SDS011;67668;52.294;4.692;2023-03-12T08:43:01;15.02;;;10.25;;
78382;SDS011;67668;52.294;4.692;2023-03-12T08:45:27;19.98;;;11.27;;
78382;SDS011;67668;52.294;4.692;2023-03-12T08:47:52;17.47;;;10.47;;
78382;SDS011;67668;52.294;4.692;2023-03-12T08:50:17;23.30;;;13.00;;
78382;SDS011;67668;52.294;4.692;2023-03-12T08:52:46;15.80;;;9.75;;
78382;SDS011;67668;52.294;4.692;2023-03-12T08:55:12;21.33;;;12.77;;
78382;SDS011;67668;52.294;4.692;2023-03-12T08:57:38;22.15;;;13.32;;
78382;SDS011;67668;52.294;4.692;2023-03-12T09:00:04;22.10;;;12.73;;
78382;SDS011;67668;52.294;4.692;2023-03-12T09:02:35;30.40;;;15.40;;
78382;SDS011;67668;52.294;4.692;2023-03-12T09:07:26;25.90;;;12.97;;
78382;SDS011;67668;52.294;4.692;2023-03-12T09:09:53;28.30;;;15.82;;
78382;SDS011;67668;52.294;4.692;2023-03-12T09:12:19;24.95;;;14.30;;
78382;SDS011;67668;52.294;4.692;2023-03-12T09:14:44;29.02;;;15.93;;
78382;SDS011;67668;52.294;4.692;2023-03-12T09:17:10;32.67;;;15.13;;
78382;SDS011;67668;52.294;4.692;2023-03-12T09:19:35;35.45;;;15.57;;
78382;SDS011;67668;52.294;4.692;2023-03-12T09:22:00;28.23;;;10.00;;
78382;SDS011;67668;52.294;4.692;2023-03-12T09:24:26;30.67;;;9.88;;
78382;SDS011;67668;52.294;4.692;2023-03-12T09:26:51;34.23;;;9.13;;
78382;SDS011;67668;52.294;4.692;2023-03-12T09:29:17;38.17;;;8.93;;
78382;SDS011;67668;52.294;4.692;2023-03-12T09:31:42;37.42;;;8.27;;
78382;SDS011;67668;52.294;4.692;2023-03-12T09:34:07;25.37;;;7.17;;
78382;SDS011;67668;52.294;4.692;2023-03-12T09:36:33;32.88;;;7.53;;
78382;SDS011;67668;52.294;4.692;2023-03-12T09:38:59;41.92;;;8.15;;
78382;SDS011;67668;52.294;4.692;2023-03-12T09:41:25;38.65;;;8.43;;
78382;SDS011;67668;52.294;4.692;2023-03-12T09:43:57;43.70;;;9.18;;
78382;SDS011;67668;52.294;4.692;2023-03-12T09:46:46;48.13;;;9.75;;
78382;SDS011;67668;52.294;4.692;2023-03-12T09:50:04;35.28;;;7.68;;
78382;SDS011;67668;52.294;4.692;2023-03-12T09:55:11;43.28;;;7.82;;
78382;SDS011;67668;52.294;4.692;2023-03-12T09:57:39;35.33;;;7.22;;
78382;SDS011;67668;52.294;4.692;2023-03-12T10:00:06;37.53;;;6.97;;
78382;SDS011;67668;52.294;4.692;2023-03-12T10:02:45;46.42;;;8.30;;
78382;SDS011;67668;52.294;4.692;2023-03-12T10:26:48;29.35;;;4.90;;
78382;SDS011;67668;52.294;4.692;2023-03-12T10:29:16;30.30;;;5.45;;
78382;SDS011;67668;52.294;4.692;2023-03-12T10:31:48;25.15;;;4.97;;
78382;SDS011;67668;52.294;4.692;2023-03-12T10:34:16;30.08;;;5.72;;
78382;SDS011;67668;52.294;4.692;2023-03-12T10:36:47;29.85;;;4.53;;
78382;SDS011;67668;52.294;4.692;2023-03-12T10:39:14;27.77;;;5.18;;
78382;SDS011;67668;52.294;4.692;2023-03-12T10:41:42;24.40;;;4.82;;
78382;SDS011;67668;52.294;4.692;2023-03-12T10:44:17;27.35;;;4.60;;
78382;SDS011;67668;52.294;4.692;2023-03-12T10:51:52;33.00;;;4.22;;
78382;SDS011;67668;52.294;4.692;2023-03-12T10:54:30;27.42;;;4.72;;
78382;SDS011;67668;52.294;4.692;2023-03-12T10:56:56;22.05;;;4.78;;
78382;SDS011;67668;52.294;4.692;2023-03-12T11:01:49;33.45;;;5.38;;
78382;SDS011;67668;52.294;4.692;2023-03-12T11:04:17;33.85;;;5.45;;
78382;SDS011;67668;52.294;4.692;2023-03-12T11:09:36;37.75;;;6.78;;
78382;SDS011;67668;52.294;4.692;2023-03-12T11:14:46;22.65;;;4.40;;
78382;SDS011;67668;52.294;4.692;2023-03-12T11:19:46;32.92;;;5.43;;
78382;SDS011;67668;52.294;4.692;2023-03-12T11:27:29;25.35;;;4.70;;
78382;SDS011;67668;52.294;4.692;2023-03-12T11:30:11;30.67;;;4.72;;
78382;SDS011;67668;52.294;4.692;2023-03-12T11:32:40;34.55;;;6.00;;
78382;SDS011;67668;52.294;4.692;2023-03-12T11:35:12;31.85;;;5.03;;
78382;SDS011;67668;52.294;4.692;2023-03-12T11:45:46;31.88;;;4.63;;
78382;SDS011;67668;52.294;4.692;2023-03-12T11:54:17;25.02;;;5.05;;
78382;SDS011;67668;52.294;4.692;2023-03-12T11:56:48;31.48;;;5.07;;
78382;SDS011;67668;52.294;4.692;2023-03-12T11:59:21;33.00;;;6.20;;
78382;SDS011;67668;52.294;4.692;2023-03-12T12:18:34;40.30;;;6.30;;
78382;SDS011;67668;52.294;4.692;2023-03-12T12:21:15;24.08;;;4.50;;
78382;SDS011;67668;52.294;4.692;2023-03-12T12:36:46;31.10;;;6.03;;
78382;SDS011;67668;52.294;4.692;2023-03-12T12:39:23;44.67;;;6.35;;
78382;SDS011;67668;52.294;4.692;2023-03-12T12:42:03;20.02;;;4.90;;
78382;SDS011;67668;52.294;4.692;2023-03-12T12:44:33;37.08;;;5.35;;
78382;SDS011;67668;52.294;4.692;2023-03-12T12:47:13;32.97;;;5.57;;
78382;SDS011;67668;52.294;4.692;2023-03-12T12:49:44;33.80;;;5.15;;
78382;SDS011;67668;52.294;4.692;2023-03-12T12:52:16;23.75;;;4.25;;
78382;SDS011;67668;52.294;4.692;2023-03-12T12:54:50;25.92;;;5.20;;
78382;SDS011;67668;52.294;4.692;2023-03-12T13:00:37;28.77;;;4.93;;
78382;SDS011;67668;52.294;4.692;2023-03-12T13:03:15;22.05;;;3.58;;
78382;SDS011;67668;52.294;4.692;2023-03-12T13:05:54;28.83;;;4.63;;
78382;SDS011;67668;52.294;4.692;2023-03-12T13:11:28;32.17;;;5.22;;
78382;SDS011;67668;52.294;4.692;2023-03-12T13:16:34;29.60;;;4.80;;
78382;SDS011;67668;52.294;4.692;2023-03-12T13:19:03;26.17;;;3.95;;
78382;SDS011;67668;52.294;4.692;2023-03-12T13:21:52;27.92;;;5.57;;
78382;SDS011;67668;52.294;4.692;2023-03-12T13:25:06;30.63;;;4.90;;
78382;SDS011;67668;52.294;4.692;2023-03-12T13:27:43;28.05;;;4.80;;
78382;SDS011;67668;52.294;4.692;2023-03-12T13:45:53;25.25;;;4.07;;
78382;SDS011;67668;52.294;4.692;2023-03-12T13:48:19;25.50;;;4.18;;
78382;SDS011;67668;52.294;4.692;2023-03-12T13:50:50;28.10;;;4.28;;
78382;SDS011;67668;52.294;4.692;2023-03-12T13:53:21;31.13;;;4.63;;
78382;SDS011;67668;52.294;4.692;2023-03-12T13:55:58;27.58;;;5.38;;
78382;SDS011;67668;52.294;4.692;2023-03-12T13:58:27;25.35;;;3.92;;
78382;SDS011;67668;52.294;4.692;2023-03-12T14:00:59;28.13;;;4.20;;
78382;SDS011;67668;52.294;4.692;2023-03-12T14:03:32;20.70;;;4.10;;
78382;SDS011;67668;52.294;4.692;2023-03-12T14:18:52;24.23;;;4.00;;
78382;SDS011;67668;52.294;4.692;2023-03-12T14:21:18;20.50;;;4.10;;
78382;SDS011;67668;52.294;4.692;2023-03-12T14:23:55;30.00;;;4.72;;
78382;SDS011;67668;52.294;4.692;2023-03-12T14:26:23;23.85;;;3.17;;
78382;SDS011;67668;52.294;4.692;2023-03-12T14:29:34;27.58;;;4.38;;
78382;SDS011;67668;52.294;4.692;2023-03-12T14:34:23;23.25;;;4.43;;
78382;SDS011;67668;52.294;4.692;2023-03-12T14:41:55;26.05;;;4.45;;
78382;SDS011;67668;52.294;4.692;2023-03-12T14:44:26;24.08;;;4.68;;
78382;SDS011;67668;52.294;4.692;2023-03-12T14:46:56;19.70;;;3.78;;
78382;SDS011;67668;52.294;4.692;2023-03-12T14:49:23;21.58;;;3.75;;
78382;SDS011;67668;52.294;4.692;2023-03-12T14:51:49;20.15;;;3.35;;
78382;SDS011;67668;52.294;4.692;2023-03-12T14:54:18;24.48;;;3.92;;
78382;SDS011;67668;52.294;4.692;2023-03-12T14:56:47;29.50;;;4.47;;
78382;SDS011;67668;52.294;4.692;2023-03-12T15:01:47;21.17;;;4.32;;
78382;SDS011;67668;52.294;4.692;2023-03-12T15:04:17;23.13;;;4.32;;
78382;SDS011;67668;52.294;4.692;2023-03-12T15:09:16;20.15;;;3.65;;
78382;SDS011;67668;52.294;4.692;2023-03-12T15:11:45;22.10;;;4.07;;
78382;SDS011;67668;52.294;4.692;2023-03-12T15:14:16;29.20;;;4.53;;
78382;SDS011;67668;52.294;4.692;2023-03-12T15:16:42;27.05;;;5.25;;
78382;SDS011;67668;52.294;4.692;2023-03-12T15:19:11;22.98;;;3.58;;
78382;SDS011;67668;52.294;4.692;2023-03-12T15:21:37;28.80;;;5.05;;
78382;SDS011;67668;52.294;4.692;2023-03-12T15:24:04;29.42;;;4.47;;
78382;SDS011;67668;52.294;4.692;2023-03-12T15:26:30;20.75;;;3.03;;
78382;SDS011;67668;52.294;4.692;2023-03-12T15:31:55;28.23;;;3.95;;
78382;SDS011;67668;52.294;4.692;2023-03-12T15:34:27;22.20;;;3.75;;
78382;SDS011;67668;52.294;4.692;2023-03-12T15:36:57;20.23;;;4.25;;
78382;SDS011;67668;52.294;4.692;2023-03-12T15:39:25;21.83;;;3.65;;
78382;SDS011;67668;52.294;4.692;2023-03-12T15:41:54;19.27;;;3.60;;
78382;SDS011;67668;52.294;4.692;2023-03-12T15:44:24;22.02;;;4.45;;
78382;SDS011;67668;52.294;4.692;2023-03-12T15:46:53;23.73;;;3.83;;
78382;SDS011;67668;52.294;4.692;2023-03-12T15:49:53;27.23;;;4.55;;
78382;SDS011;67668;52.294;4.692;2023-03-12T15:52:25;22.35;;;4.75;;
78382;SDS011;67668;52.294;4.692;2023-03-12T15:57:43;20.08;;;3.63;;
78382;SDS011;67668;52.294;4.692;2023-03-12T16:02:37;28.02;;;4.72;;
78382;SDS011;67668;52.294;4.692;2023-03-12T16:05:27;27.88;;;3.78;;
78382;SDS011;67668;52.294;4.692;2023-03-12T16:10:59;15.40;;;2.95;;
78382;SDS011;67668;52.294;4.692;2023-03-12T16:13:26;18.77;;;3.43;;
78382;SDS011;67668;52.294;4.692;2023-03-12T16:15:55;24.95;;;3.72;;
78382;SDS011;67668;52.294;4.692;2023-03-12T16:18:21;21.23;;;3.92;;
78382;SDS011;67668;52.294;4.692;2023-03-12T16:20:48;22.30;;;4.22;;
78382;SDS011;67668;52.294;4.692;2023-03-12T16:23:15;29.27;;;4.97;;
78382;SDS011;67668;52.294;4.692;2023-03-12T16:25:41;22.17;;;3.78;;
78382;SDS011;67668;52.294;4.692;2023-03-12T16:28:09;22.00;;;3.47;;
78382;SDS011;67668;52.294;4.692;2023-03-12T16:30:37;30.17;;;4.20;;
78382;SDS011;67668;52.294;4.692;2023-03-12T16:33:03;24.30;;;3.90;;
78382;SDS011;67668;52.294;4.692;2023-03-12T16:35:30;22.55;;;4.32;;
78382;SDS011;67668;52.294;4.692;2023-03-12T16:37:56;17.48;;;4.35;;
78382;SDS011;67668;52.294;4.692;2023-03-12T16:40:25;22.60;;;4.32;;
78382;SDS011;67668;52.294;4.692;2023-03-12T16:42:52;25.35;;;4.15;;
78382;SDS011;67668;52.294;4.692;2023-03-12T16:45:19;24.77;;;4.45;;
78382;SDS011;67668;52.294;4.692;2023-03-12T16:47:46;23.95;;;4.55;;
78382;SDS011;67668;52.294;4.692;2023-03-12T16:50:17;25.90;;;3.72;;
78382;SDS011;67668;52.294;4.692;2023-03-12T16:52:45;28.17;;;4.43;;
78382;SDS011;67668;52.294;4.692;2023-03-12T16:55:14;21.15;;;3.72;;
78382;SDS011;67668;52.294;4.692;2023-03-12T16:57:49;21.55;;;4.00;;
78382;SDS011;67668;52.294;4.692;2023-03-12T17:00:20;26.35;;;4.07;;
78382;SDS011;67668;52.294;4.692;2023-03-12T17:02:50;33.30;;;4.53;;
78382;SDS011;67668;52.294;4.692;2023-03-12T17:05:25;26.27;;;5.10;;
78382;SDS011;67668;52.294;4.692;2023-03-12T17:07:52;27.20;;;4.88;;
78382;SDS011;67668;52.294;4.692;2023-03-12T17:10:18;25.40;;;4.68;;
78382;SDS011;67668;52.294;4.692;2023-03-12T17:12:44;28.33;;;4.50;;
78382;SDS011;67668;52.294;4.692;2023-03-12T17:15:14;19.98;;;4.15;;
78382;SDS011;67668;52.294;4.692;2023-03-12T17:17:43;32.17;;;4.43;;
78382;SDS011;67668;52.294;4.692;2023-03-12T17:20:10;20.52;;;3.38;;
78382;SDS011;67668;52.294;4.692;2023-03-12T17:22:38;22.75;;;3.53;;
78382;SDS011;67668;52.294;4.692;2023-03-12T17:25:04;20.60;;;4.10;;
78382;SDS011;67668;52.294;4.692;2023-03-12T17:27:30;23.75;;;4.82;;
78382;SDS011;67668;52.294;4.692;2023-03-12T17:29:56;27.58;;;4.70;;
78382;SDS011;67668;52.294;4.692;2023-03-12T17:32:21;28.20;;;4.80;;
78382;SDS011;67668;52.294;4.692;2023-03-12T17:34:52;17.63;;;4.25;;
78382;SDS011;67668;52.294;4.692;2023-03-12T17:37:18;24.38;;;4.68;;